sensor_id;sensor_type;location;lat;lon;timestamp;temperature;humidity
49821;DHT22;36893;52.520;13.450;2024-02-15T00:02:00;21.00;85.10
49821;DHT22;36893;52.520;13.450;2024-02-15T00:12:01;21.00;85.00
49821;DHT22;36893;52.520;13.450;2024-02-15T00:22:01;21.00;85.00
49821;DHT22;36893;52.520;13.450;2024-02-15T00:32:02;21.00;85.00
49821;DHT22;36893;52.520;13.450;2024-02-15T00:42:04;21.00;85.00
49821;DHT22;36893;52.520;13.450;2024-02-15T00:52:06;20.90;84.90
49821;DHT22;36893;52.520;13.450;2024-02-15T01:02:06;21.00;84.90
49821;DHT22;36893;52.520;13.450;2024-02-15T01:12:07;21.00;84.90
49821;DHT22;36893;52.520;13.450;2024-02-15T01:22:08;21.00;84.90
49821;DHT22;36893;52.520;13.450;2024-02-15T01:32:09;20.90;84.90
49821;DHT22;36893;52.520;13.450;2024-02-15T01:42:09;20.90;84.90
49821;DHT22;36893;52.520;13.450;2024-02-15T01:52:11;20.90;84.90
49821;DHT22;36893;52.520;13.450;2024-02-15T02:02:14;20.90;84.80
49821;DHT22;36893;52.520;13.450;2024-02-15T02:12:17;20.90;84.90
49821;DHT22;36893;52.520;13.450;2024-02-15T02:22:19;20.90;84.80
49821;DHT22;36893;52.520;13.450;2024-02-15T02:32:20;20.90;84.80
49821;DHT22;36893;52.520;13.450;2024-02-15T02:42:21;20.90;84.70
49821;DHT22;36893;52.520;13.450;2024-02-15T02:52:22;20.90;84.70
49821;DHT22;36893;52.520;13.450;2024-02-15T03:02:22;20.90;84.70
49821;DHT22;36893;52.520;13.450;2024-02-15T03:12:23;20.90;84.70
49821;DHT22;36893;52.520;13.450;2024-02-15T03:22:25;20.90;84.80
49821;DHT22;36893;52.520;13.450;2024-02-15T03:32:26;20.90;84.70
49821;DHT22;36893;52.520;13.450;2024-02-15T03:42:27;20.90;84.70
49821;DHT22;36893;52.520;13.450;2024-02-15T03:52:28;20.90;84.70
49821;DHT22;36893;52.520;13.450;2024-02-15T04:02:30;20.90;84.70
49821;DHT22;36893;52.520;13.450;2024-02-15T04:12:30;21.00;84.70
49821;DHT22;36893;52.520;13.450;2024-02-15T04:22:32;20.90;84.70
49821;DHT22;36893;52.520;13.450;2024-02-15T04:32:36;21.00;84.70
49821;DHT22;36893;52.520;13.450;2024-02-15T04:42:37;21.00;84.60
49821;DHT22;36893;52.520;13.450;2024-02-15T04:52:40;21.00;84.60
49821;DHT22;36893;52.520;13.450;2024-02-15T05:02:42;21.00;84.60
49821;DHT22;36893;52.520;13.450;2024-02-15T05:12:44;21.00;84.60
49821;DHT22;36893;52.520;13.450;2024-02-15T05:22:48;21.00;84.60
49821;DHT22;36893;52.520;13.450;2024-02-15T05:32:48;21.00;84.50
49821;DHT22;36893;52.520;13.450;2024-02-15T05:42:55;21.00;84.50
49821;DHT22;36893;52.520;13.450;2024-02-15T05:52:57;21.00;84.50
49821;DHT22;36893;52.520;13.450;2024-02-15T06:02:58;21.00;84.50
49821;DHT22;36893;52.520;13.450;2024-02-15T06:12:59;21.00;84.40
49821;DHT22;36893;52.520;13.450;2024-02-15T06:23:00;21.00;84.40
49821;DHT22;36893;52.520;13.450;2024-02-15T06:33:02;21.00;84.30
49821;DHT22;36893;52.520;13.450;2024-02-15T06:43:21;21.00;84.30
49821;DHT22;36893;52.520;13.450;2024-02-15T06:53:22;21.00;84.30
49821;DHT22;36893;52.520;13.450;2024-02-15T07:03:23;21.00;84.40
49821;DHT22;36893;52.520;13.450;2024-02-15T07:13:24;21.00;84.30
49821;DHT22;36893;52.520;13.450;2024-02-15T07:23:27;21.00;84.30
49821;DHT22;36893;52.520;13.450;2024-02-15T07:33:28;21.00;84.20
49821;DHT22;36893;52.520;13.450;2024-02-15T07:43:29;21.10;84.20
49821;DHT22;36893;52.520;13.450;2024-02-15T07:53:30;21.10;84.20
49821;DHT22;36893;52.520;13.450;2024-02-15T08:03:31;21.10;84.20
49821;DHT22;36893;52.520;13.450;2024-02-15T08:13:32;21.10;84.20
49821;DHT22;36893;52.520;13.450;2024-02-15T08:23:33;21.10;84.10
49821;DHT22;36893;52.520;13.450;2024-02-15T08:33:33;21.00;84.10
49821;DHT22;36893;52.520;13.450;2024-02-15T08:43:34;21.10;84.10
49821;DHT22;36893;52.520;13.450;2024-02-15T08:53:35;21.10;84.10
49821;DHT22;36893;52.520;13.450;2024-02-15T09:03:38;21.10;84.10
49821;DHT22;36893;52.520;13.450;2024-02-15T09:13:39;21.10;84.10
49821;DHT22;36893;52.520;13.450;2024-02-15T09:23:40;21.10;84.00
49821;DHT22;36893;52.520;13.450;2024-02-15T09:33:41;21.10;83.90
49821;DHT22;36893;52.520;13.450;2024-02-15T09:43:41;21.10;83.90
49821;DHT22;36893;52.520;13.450;2024-02-15T09:53:44;21.10;83.90
49821;DHT22;36893;52.520;13.450;2024-02-15T10:03:47;21.10;83.80
49821;DHT22;36893;52.520;13.450;2024-02-15T10:13:50;21.10;83.90
49821;DHT22;36893;52.520;13.450;2024-02-15T10:24:06;21.10;83.80
49821;DHT22;36893;52.520;13.450;2024-02-15T10:34:08;21.10;83.80
49821;DHT22;36893;52.520;13.450;2024-02-15T10:44:09;21.20;83.80
49821;DHT22;36893;52.520;13.450;2024-02-15T10:54:12;21.20;83.80
49821;DHT22;36893;52.520;13.450;2024-02-15T11:04:17;21.20;83.70
49821;DHT22;36893;52.520;13.450;2024-02-15T11:14:31;21.30;83.60
49821;DHT22;36893;52.520;13.450;2024-02-15T11:24:32;21.30;83.50
49821;DHT22;36893;52.520;13.450;2024-02-15T11:34:42;21.30;83.40
49821;DHT22;36893;52.520;13.450;2024-02-15T11:44:44;21.30;83.50
49821;DHT22;36893;52.520;13.450;2024-02-15T11:54:45;21.40;83.60
49821;DHT22;36893;52.520;13.450;2024-02-15T12:04:47;21.40;83.60
49821;DHT22;36893;52.520;13.450;2024-02-15T12:15:07;21.40;83.40
49821;DHT22;36893;52.520;13.450;2024-02-15T12:25:26;21.40;83.20
49821;DHT22;36893;52.520;13.450;2024-02-15T12:35:27;21.50;83.20
49821;DHT22;36893;52.520;13.450;2024-02-15T12:45:28;21.40;83.00
49821;DHT22;36893;52.520;13.450;2024-02-15T12:55:30;21.50;83.10
49821;DHT22;36893;52.520;13.450;2024-02-15T13:05:35;21.50;83.10
49821;DHT22;36893;52.520;13.450;2024-02-15T13:15:38;21.50;83.10
49821;DHT22;36893;52.520;13.450;2024-02-15T13:25:43;21.40;83.00
49821;DHT22;36893;52.520;13.450;2024-02-15T13:35:43;21.50;83.00
49821;DHT22;36893;52.520;13.450;2024-02-15T13:45:45;21.50;83.00
49821;DHT22;36893;52.520;13.450;2024-02-15T13:55:46;21.50;82.90
49821;DHT22;36893;52.520;13.450;2024-02-15T14:05:48;21.40;82.80
49821;DHT22;36893;52.520;13.450;2024-02-15T14:15:50;21.50;82.80
49821;DHT22;36893;52.520;13.450;2024-02-15T14:25:51;21.50;82.80
49821;DHT22;36893;52.520;13.450;2024-02-15T14:35:53;21.50;82.80
49821;DHT22;36893;52.520;13.450;2024-02-15T14:45:55;21.50;82.80
49821;DHT22;36893;52.520;13.450;2024-02-15T14:55:59;21.50;82.90
49821;DHT22;36893;52.520;13.450;2024-02-15T15:06:00;21.50;82.80
49821;DHT22;36893;52.520;13.450;2024-02-15T15:16:19;21.50;82.80
49821;DHT22;36893;52.520;13.450;2024-02-15T15:26:21;21.50;82.80
49821;DHT22;36893;52.520;13.450;2024-02-15T15:36:22;21.60;82.60
49821;DHT22;36893;52.520;13.450;2024-02-15T15:46:23;21.60;82.60
49821;DHT22;36893;52.520;13.450;2024-02-15T15:56:23;21.60;82.60
49821;DHT22;36893;52.520;13.450;2024-02-15T16:06:24;21.50;82.60
49821;DHT22;36893;52.520;13.450;2024-02-15T16:16:25;21.60;82.60
49821;DHT22;36893;52.520;13.450;2024-02-15T16:26:25;21.50;82.60
49821;DHT22;36893;52.520;13.450;2024-02-15T16:36:26;21.50;82.50
49821;DHT22;36893;52.520;13.450;2024-02-15T16:46:27;21.50;82.50
49821;DHT22;36893;52.520;13.450;2024-02-15T16:56:29;21.50;82.40
49821;DHT22;36893;52.520;13.450;2024-02-15T17:06:31;21.50;82.40
49821;DHT22;36893;52.520;13.450;2024-02-15T17:16:31;21.50;82.30
49821;DHT22;36893;52.520;13.450;2024-02-15T17:26:32;21.50;82.20
49821;DHT22;36893;52.520;13.450;2024-02-15T17:36:33;21.50;82.30
49821;DHT22;36893;52.520;13.450;2024-02-15T17:46:34;21.50;82.20
49821;DHT22;36893;52.520;13.450;2024-02-15T17:56:36;21.50;82.20
49821;DHT22;36893;52.520;13.450;2024-02-15T18:06:37;21.40;82.20
49821;DHT22;36893;52.520;13.450;2024-02-15T18:16:37;21.40;82.30
49821;DHT22;36893;52.520;13.450;2024-02-15T18:26:38;21.40;82.30
49821;DHT22;36893;52.520;13.450;2024-02-15T18:36:38;21.40;82.30
49821;DHT22;36893;52.520;13.450;2024-02-15T18:46:39;21.40;82.20
49821;DHT22;36893;52.520;13.450;2024-02-15T18:56:40;21.40;82.30
49821;DHT22;36893;52.520;13.450;2024-02-15T19:06:41;21.40;82.30
49821;DHT22;36893;52.520;13.450;2024-02-15T19:16:42;21.30;82.20
49821;DHT22;36893;52.520;13.450;2024-02-15T19:26:42;21.30;82.20
49821;DHT22;36893;52.520;13.450;2024-02-15T19:36:43;21.30;82.40
49821;DHT22;36893;52.520;13.450;2024-02-15T19:46:48;21.30;82.40
49821;DHT22;36893;52.520;13.450;2024-02-15T19:56:49;21.30;82.40
49821;DHT22;36893;52.520;13.450;2024-02-15T20:06:50;21.30;82.50
49821;DHT22;36893;52.520;13.450;2024-02-15T20:16:51;21.30;82.50
49821;DHT22;36893;52.520;13.450;2024-02-15T20:26:56;21.30;82.50
49821;DHT22;36893;52.520;13.450;2024-02-15T20:36:56;21.30;82.40
49821;DHT22;36893;52.520;13.450;2024-02-15T20:46:58;21.40;82.40
49821;DHT22;36893;52.520;13.450;2024-02-15T20:56:59;21.40;82.20
49821;DHT22;36893;52.520;13.450;2024-02-15T21:06:59;21.40;82.30
49821;DHT22;36893;52.520;13.450;2024-02-15T21:17:01;21.40;82.20
49821;DHT22;36893;52.520;13.450;2024-02-15T21:27:01;21.30;82.00
49821;DHT22;36893;52.520;13.450;2024-02-15T21:37:02;21.30;82.10
49821;DHT22;36893;52.520;13.450;2024-02-15T21:47:04;21.20;82.20
49821;DHT22;36893;52.520;13.450;2024-02-15T21:57:05;21.20;82.20
49821;DHT22;36893;52.520;13.450;2024-02-15T22:07:06;21.30;82.20
49821;DHT22;36893;52.520;13.450;2024-02-15T22:17:07;21.50;81.70
49821;DHT22;36893;52.520;13.450;2024-02-15T22:27:08;21.50;81.50
49821;DHT22;36893;52.520;13.450;2024-02-15T22:37:09;21.50;81.30
49821;DHT22;36893;52.520;13.450;2024-02-15T22:47:09;21.60;81.40
49821;DHT22;36893;52.520;13.450;2024-02-15T22:57:10;21.60;81.30
49821;DHT22;36893;52.520;13.450;2024-02-15T23:07:10;21.60;81.40
49821;DHT22;36893;52.520;13.450;2024-02-15T23:17:11;21.60;81.30
49821;DHT22;36893;52.520;13.450;2024-02-15T23:27:12;21.60;81.30
49821;DHT22;36893;52.520;13.450;2024-02-15T23:37:12;21.60;81.40
49821;DHT22;36893;52.520;13.450;2024-02-15T23:47:32;21.60;81.30
49821;DHT22;36893;52.520;13.450;2024-02-15T23:57:32;21.60;81.40
